Time;durP1;ratioP1;P1;durP2;ratioP2;P2;SDS_P1;SDS_P2;PMS_P1;PMS_P2;Temp;Humidity;BMP_temperature;BMP_pressure;BME280_temperature;BME280_humidity;BME280_pressure;Samples;Min_cycle;Max_cycle;Signal;HPM_P1;HPM_P2
2021/12/23 00:01:20;;;;;;;30.67;15.00;;;;;;;0.22;61.46;101632.47;5101758;28;20101;-68
2021/12/23 00:03:46;;;;;;;29.40;15.07;;;;;;;0.18;61.28;101614.09;5107721;28;20031;-69
2021/12/23 00:06:12;;;;;;;29.40;15.02;;;;;;;0.18;61.30;101619.38;5096768;28;20030;-68
2021/12/23 00:08:37;;;;;;;26.95;14.05;;;;;;;0.23;60.92;101623.66;5098894;28;20032;-67
2021/12/23 00:11:03;;;;;;;26.27;14.25;;;;;;;0.25;60.53;101626.25;5097067;28;20024;-68
2021/12/23 00:13:28;;;;;;;25.13;14.25;;;;;;;0.18;60.78;101620.25;5106729;28;20050;-67
2021/12/23 00:23:45;;;;;;;26.25;12.63;;;;;;;0.20;60.17;101625.50;5098111;28;20548;-67
2021/12/23 00:26:10;;;;;;;29.40;14.43;;;;;;;0.16;60.15;101616.78;5097400;28;20039;-67
2021/12/23 00:28:36;;;;;;;24.63;13.55;;;;;;;0.18;59.87;101609.69;5091390;28;20036;-67
2021/12/23 00:31:04;;;;;;;23.48;12.23;;;;;;;0.18;59.70;101606.19;5105174;28;20084;-66
2021/12/23 00:33:30;;;;;;;24.38;13.10;;;;;;;0.23;59.40;101614.88;5096723;28;20398;-68
2021/12/23 00:35:57;;;;;;;29.38;13.57;;;;;;;0.24;59.38;101613.94;5099385;28;20126;-68
2021/12/23 00:38:29;;;;;;;26.58;13.52;;;;;;;0.26;59.12;101609.53;5096481;28;20410;-67
2021/12/23 00:40:55;;;;;;;26.83;13.23;;;;;;;0.17;59.25;101592.16;5106984;27;20029;-66
2021/12/23 00:43:21;;;;;;;27.05;12.50;;;;;;;0.20;59.31;101597.34;5101657;28;20068;-67
2021/12/23 00:45:48;;;;;;;24.73;12.63;;;;;;;0.22;59.06;101606.06;5106982;28;20031;-68
2021/12/23 00:48:14;;;;;;;27.00;13.77;;;;;;;0.18;58.87;101591.25;5095380;28;20330;-68
2021/12/23 00:50:40;;;;;;;27.20;13.98;;;;;;;0.21;59.12;101604.34;5097181;28;20383;-67
2021/12/23 00:53:09;;;;;;;28.13;13.68;;;;;;;0.16;59.49;101592.19;5094522;28;20016;-67
2021/12/23 00:55:35;;;;;;;27.42;13.05;;;;;;;0.02;59.47;101576.69;5104150;28;20023;-67
2021/12/23 00:58:01;;;;;;;25.92;13.70;;;;;;;0.10;59.40;101590.59;5101743;28;20026;-67
2021/12/23 01:00:27;;;;;;;25.33;13.95;;;;;;;0.09;59.52;101594.09;5092786;28;20058;-67
2021/12/23 01:02:52;;;;;;;28.27;14.20;;;;;;;0.12;59.52;101607.22;5091651;28;20107;-66
2021/12/23 01:05:20;;;;;;;28.23;15.10;;;;;;;0.13;59.90;101614.25;5091751;28;20135;-66
2021/12/23 01:07:47;;;;;;;34.70;16.42;;;;;;;0.10;59.94;101609.03;5099483;28;20114;-66
2021/12/23 01:10:13;;;;;;;32.75;17.35;;;;;;;0.17;59.42;101605.34;5089772;28;20031;-67
2021/12/23 01:12:45;;;;;;;33.72;16.55;;;;;;;0.15;59.44;101614.19;5093895;28;20028;-66
2021/12/23 01:17:55;;;;;;;36.88;18.55;;;;;;;0.12;59.91;101601.09;5096341;28;20051;-66
2021/12/23 01:20:30;;;;;;;34.33;16.02;;;;;;;0.12;60.03;101599.31;5101166;28;20023;-66
2021/12/23 01:22:59;;;;;;;35.25;17.05;;;;;;;0.12;59.91;101591.38;5097120;28;20390;-67
2021/12/23 01:25:25;;;;;;;33.50;17.48;;;;;;;0.16;60.31;101595.69;5095489;28;20114;-68
2021/12/23 01:27:52;;;;;;;27.30;15.85;;;;;;;0.11;60.52;101594.94;5104636;28;20031;-68
2021/12/23 01:30:18;;;;;;;33.33;17.13;;;;;;;0.10;60.33;101602.88;5095151;28;20096;-68
2021/12/23 01:32:46;;;;;;;34.75;17.73;;;;;;;0.07;60.40;101590.66;5100038;28;20036;-67
2021/12/23 01:35:12;;;;;;;31.02;17.20;;;;;;;0.12;60.05;101601.94;5104749;28;20374;-68
2021/12/23 01:37:38;;;;;;;31.55;17.40;;;;;;;0.06;60.48;101593.34;5103061;28;20118;-67
2021/12/23 01:40:05;;;;;;;32.95;16.73;;;;;;;0.05;60.85;101592.44;5105315;28;20134;-67
2021/12/23 01:42:30;;;;;;;29.88;16.65;;;;;;;0.03;60.83;101596.88;5106053;28;20505;-67
2021/12/23 01:44:56;;;;;;;32.92;17.13;;;;;;;-0.03;61.37;101581.25;5096185;28;20031;-67
2021/12/23 01:47:22;;;;;;;34.92;16.50;;;;;;;-0.09;61.01;101573.47;5097458;28;20486;-67
2021/12/23 01:49:48;;;;;;;34.63;17.45;;;;;;;-0.13;61.43;101556.84;5105871;28;20495;-67
2021/12/23 01:52:13;;;;;;;36.13;16.92;;;;;;;-0.07;61.21;101572.53;5103039;28;20035;-67
2021/12/23 01:54:39;;;;;;;34.05;17.52;;;;;;;-0.08;61.38;101560.25;5097688;28;20028;-67
2021/12/23 01:57:05;;;;;;;32.00;16.67;;;;;;;-0.10;61.88;101562.06;5100556;28;20035;-67
2021/12/23 01:59:32;;;;;;;32.25;17.52;;;;;;;-0.09;61.38;101558.50;5102709;28;20035;-67
2021/12/23 02:01:57;;;;;;;37.75;18.25;;;;;;;-0.13;61.68;101542.78;5098473;28;20016;-68
2021/12/23 02:04:23;;;;;;;36.15;17.35;;;;;;;-0.14;61.67;101551.63;5101200;28;20051;-67
2021/12/23 02:06:48;;;;;;;30.15;16.33;;;;;;;-0.18;61.80;101539.44;5095895;28;20114;-67
2021/12/23 02:09:15;;;;;;;33.63;17.25;;;;;;;-0.13;61.60;101543.69;5090605;28;20506;-67
2021/12/23 02:11:41;;;;;;;34.33;17.45;;;;;;;-0.13;61.78;101550.69;5094342;28;20088;-67
2021/12/23 02:14:07;;;;;;;36.63;18.27;;;;;;;-0.17;61.76;101527.97;5097659;28;20412;-68
2021/12/23 02:16:32;;;;;;;29.00;15.65;;;;;;;-0.22;61.36;101516.69;5097507;28;20153;-68
2021/12/23 02:18:58;;;;;;;31.63;16.17;;;;;;;-0.29;61.65;101502.78;5096410;28;20553;-67
2021/12/23 02:21:23;;;;;;;32.67;16.90;;;;;;;-0.21;61.67;101513.13;5095721;28;20090;-68
2021/12/23 02:23:49;;;;;;;32.30;16.23;;;;;;;-0.20;61.59;101523.66;5107208;28;20478;-67
2021/12/23 02:26:14;;;;;;;29.92;16.00;;;;;;;-0.28;61.66;101506.28;5100237;28;20039;-67
2021/12/23 02:28:40;;;;;;;33.13;16.33;;;;;;;-0.17;61.54;101514.78;5092946;28;20106;-68
2021/12/23 02:31:05;;;;;;;32.20;16.13;;;;;;;-0.20;61.63;101518.38;5094414;28;20027;-68
2021/12/23 02:33:31;;;;;;;29.58;15.50;;;;;;;-0.20;61.73;101517.50;5097555;28;20101;-68
2021/12/23 02:35:58;;;;;;;32.40;16.33;;;;;;;-0.20;61.74;101517.50;5095246;28;20028;-67
2021/12/23 02:38:24;;;;;;;33.17;15.80;;;;;;;-0.25;61.67;101504.44;5089157;28;20098;-67
2021/12/23 02:40:50;;;;;;;31.65;16.85;;;;;;;-0.23;61.81;101509.66;5093196;28;20384;-67
2021/12/23 02:43:22;;;;;;;28.85;16.15;;;;;;;-0.32;61.35;101496.75;5102373;28;20023;-67
2021/12/23 02:45:51;;;;;;;31.60;15.23;;;;;;;-0.24;61.44;101511.47;5090868;28;20015;-67
2021/12/23 02:48:38;;;;;;;31.67;15.27;;;;;;;-0.22;61.22;101509.63;5099949;28;20487;-68
2021/12/23 02:51:09;;;;;;;30.80;14.38;;;;;;;-0.27;61.41;101500.97;5103729;28;20031;-68
2021/12/23 02:53:36;;;;;;;28.70;14.32;;;;;;;-0.25;61.35;101511.50;5109406;28;20043;-67
2021/12/23 02:56:04;;;;;;;26.20;14.00;;;;;;;-0.26;61.40;101505.34;5102095;28;20112;-67
2021/12/23 02:58:30;;;;;;;31.88;15.38;;;;;;;-0.26;61.62;101513.25;5105814;28;20038;-68
2021/12/23 03:00:57;;;;;;;28.70;14.18;;;;;;;-0.22;61.43;101520.16;5108584;28;20016;-67
2021/12/23 03:03:24;;;;;;;29.75;14.45;;;;;;;-0.24;60.98;101502.66;5100102;28;20043;-68
2021/12/23 03:05:52;;;;;;;27.70;13.90;;;;;;;-0.22;61.22;101501.72;5097857;28;20918;-69
2021/12/23 03:08:37;;;;;;;26.38;13.73;;;;;;;-0.21;60.98;101499.97;5097363;28;20028;-69
2021/12/23 03:11:08;;;;;;;26.90;13.48;;;;;;;-0.26;61.11;101496.56;5106139;28;20383;-69
2021/12/23 03:13:35;;;;;;;27.05;13.18;;;;;;;-0.29;61.29;101489.59;5098788;28;20745;-69
2021/12/23 03:16:01;;;;;;;28.92;13.70;;;;;;;-0.27;60.94;101485.16;5101564;28;20024;-69
2021/12/23 03:18:27;;;;;;;30.80;13.98;;;;;;;-0.25;60.91;101490.41;5102299;28;20032;-69
2021/12/23 03:20:53;;;;;;;24.40;12.63;;;;;;;-0.38;61.10;101471.38;5098685;28;20024;-69
2021/12/23 03:23:19;;;;;;;27.95;14.20;;;;;;;-0.28;61.25;101477.31;5098837;28;20478;-70
2021/12/23 03:25:44;;;;;;;26.08;13.18;;;;;;;-0.36;61.31;101464.31;5102027;27;20161;-69
2021/12/23 03:28:11;;;;;;;26.17;13.75;;;;;;;-0.37;61.39;101461.72;5102323;28;20035;-70
2021/12/23 03:30:37;;;;;;;28.85;14.23;;;;;;;-0.31;61.38;101483.53;5101425;28;20024;-69
2021/12/23 03:33:03;;;;;;;27.23;12.60;;;;;;;-0.37;61.23;101462.59;5098226;28;20016;-69
2021/12/23 03:35:29;;;;;;;23.50;12.52;;;;;;;-0.38;61.13;101463.47;5106393;28;20039;-69
2021/12/23 03:37:55;;;;;;;24.70;13.32;;;;;;;-0.32;61.04;101467.75;5105272;28;20035;-69
2021/12/23 03:40:21;;;;;;;28.30;13.57;;;;;;;-0.34;61.18;101461.63;5106339;28;20383;-69
2021/12/23 03:42:47;;;;;;;27.67;12.85;;;;;;;-0.38;61.43;101457.34;5104650;28;20016;-68
2021/12/23 03:45:12;;;;;;;24.67;12.45;;;;;;;-0.35;61.27;101459.91;5101739;28;20034;-69
2021/12/23 03:47:38;;;;;;;23.02;12.32;;;;;;;-0.37;61.36;101457.31;5102122;28;20055;-70
2021/12/23 03:50:05;;;;;;;26.48;12.55;;;;;;;-0.33;61.28;101466.88;5098617;28;20120;-68
2021/12/23 03:52:31;;;;;;;22.73;12.52;;;;;;;-0.37;61.30;101457.31;5092699;28;20647;-69
2021/12/23 03:54:57;;;;;;;24.40;12.45;;;;;;;-0.38;61.01;101449.44;5103720;28;20024;-69
2021/12/23 03:57:22;;;;;;;22.52;12.55;;;;;;;-0.34;61.45;101462.50;5099044;28;20020;-67
2021/12/23 03:59:48;;;;;;;26.50;13.02;;;;;;;-0.40;61.42;101454.75;5097681;28;20139;-69
2021/12/23 04:02:14;;;;;;;23.75;12.38;;;;;;;-0.42;61.39;101448.66;5099754;28;20455;-69
2021/12/23 04:04:39;;;;;;;24.45;12.43;;;;;;;-0.39;61.35;101452.97;5095909;28;20023;-69
2021/12/23 04:07:05;;;;;;;24.80;13.38;;;;;;;-0.42;61.00;101442.53;5100942;28;20046;-70
2021/12/23 04:09:30;;;;;;;23.33;11.55;;;;;;;-0.41;61.31;101441.63;5099059;28;20120;-70
2021/12/23 04:11:56;;;;;;;23.35;12.98;;;;;;;-0.40;61.26;101446.84;5095814;28;20107;-69
2021/12/23 04:14:21;;;;;;;26.67;12.55;;;;;;;-0.46;61.21;101441.72;5097119;28;20028;-69
2021/12/23 04:16:47;;;;;;;22.63;11.95;;;;;;;-0.44;61.06;101452.22;5103259;28;20583;-70
2021/12/23 04:19:13;;;;;;;23.77;12.40;;;;;;;-0.46;61.08;101446.13;5101870;28;20398;-71
2021/12/23 04:21:41;;;;;;;21.80;11.80;;;;;;;-0.46;61.15;101448.75;5095460;28;20038;-70
2021/12/23 04:24:07;;;;;;;25.63;12.48;;;;;;;-0.48;61.17;101443.53;5101794;28;20046;-70
2021/12/23 04:26:33;;;;;;;19.80;10.95;;;;;;;-0.55;61.15;101430.56;5101179;28;20383;-69
2021/12/23 04:28:59;;;;;;;26.38;12.52;;;;;;;-0.56;61.17;101434.09;5105624;28;20504;-69
2021/12/23 04:31:25;;;;;;;21.80;12.20;;;;;;;-0.58;61.21;101430.66;5097307;28;20056;-70
2021/12/23 04:33:52;;;;;;;24.67;11.77;;;;;;;-0.62;61.36;101434.22;5101676;28;20502;-70
2021/12/23 04:36:19;;;;;;;26.80;13.02;;;;;;;-0.70;61.34;101423.91;5102509;28;20031;-70
2021/12/23 04:38:46;;;;;;;23.60;11.50;;;;;;;-0.75;61.99;101431.03;5103113;28;20034;-70
2021/12/23 04:41:13;;;;;;;23.88;11.60;;;;;;;-0.77;62.04;101434.63;5093229;28;20063;-69
2021/12/23 04:43:39;;;;;;;24.23;13.32;;;;;;;-0.80;62.33;101437.31;5096250;28;20031;-70
2021/12/23 04:46:05;;;;;;;29.20;13.73;;;;;;;-0.87;62.63;101436.59;5103013;28;20546;-69
2021/12/23 04:48:31;;;;;;;23.58;12.18;;;;;;;-0.90;62.63;101433.19;5091854;28;20119;-70
2021/12/23 04:50:58;;;;;;;31.17;13.85;;;;;;;-0.94;62.62;101431.50;5102405;28;20104;-70
2021/12/23 04:53:23;;;;;;;25.55;14.05;;;;;;;-0.97;62.42;101426.34;5098600;28;20042;-70
2021/12/23 04:55:49;;;;;;;27.50;13.73;;;;;;;-1.01;62.27;101425.53;5091407;28;20024;-71
2021/12/23 04:58:15;;;;;;;27.65;13.35;;;;;;;-1.01;62.76;101422.03;5098707;28;20032;-70
2021/12/23 05:00:42;;;;;;;27.38;13.43;;;;;;;-1.04;62.42;101429.97;5095553;28;20386;-70
2021/12/23 05:03:08;;;;;;;27.48;13.55;;;;;;;-1.06;62.36;101431.81;5104721;28;20518;-68
2021/12/23 05:05:34;;;;;;;25.38;14.23;;;;;;;-1.10;61.99;101432.78;5101945;28;20020;-70
2021/12/23 05:07:59;;;;;;;27.05;13.50;;;;;;;-1.15;62.44;101424.13;5100351;28;20077;-70
2021/12/23 05:10:26;;;;;;;27.13;13.65;;;;;;;-1.17;62.17;101431.16;5101308;28;20115;-70
2021/12/23 05:12:51;;;;;;;27.38;13.77;;;;;;;-1.24;61.99;101426.94;5096764;28;20471;-69
2021/12/23 05:15:19;;;;;;;27.10;13.13;;;;;;;-1.22;62.04;101430.41;5102682;28;20080;-70
2021/12/23 05:17:46;;;;;;;26.30;14.70;;;;;;;-1.26;62.23;101426.97;5099071;28;20055;-69
2021/12/23 05:20:13;;;;;;;29.05;13.48;;;;;;;-1.24;62.03;101437.47;5096844;28;20051;-70
2021/12/23 05:22:39;;;;;;;27.05;13.32;;;;;;;-1.24;61.68;101430.44;5097815;28;20039;-70
2021/12/23 05:25:06;;;;;;;31.08;13.82;;;;;;;-1.30;61.55;101422.69;5093998;28;20115;-70
2021/12/23 05:27:32;;;;;;;29.88;16.30;;;;;;;-1.39;61.06;101401.00;5097409;28;20127;-70
2021/12/23 05:29:57;;;;;;;29.38;15.10;;;;;;;-1.31;61.36;101420.97;5094804;28;20119;-69
2021/12/23 05:32:23;;;;;;;30.63;15.80;;;;;;;-1.32;60.86;101407.84;5100081;28;20019;-69
2021/12/23 05:34:48;;;;;;;29.75;15.45;;;;;;;-1.32;60.30;101402.59;5105363;28;20023;-69
2021/12/23 05:37:14;;;;;;;35.10;16.98;;;;;;;-1.32;60.30;101399.94;5101681;28;20023;-69
2021/12/23 05:39:39;;;;;;;30.00;15.02;;;;;;;-1.32;60.06;101416.59;5096754;28;20114;-70
2021/12/23 05:42:05;;;;;;;28.48;14.60;;;;;;;-1.37;60.48;101410.56;5106552;28;20047;-69
2021/12/23 05:44:30;;;;;;;30.30;13.93;;;;;;;-1.40;60.34;101405.38;5103528;28;20118;-68
2021/12/23 05:46:56;;;;;;;26.42;12.98;;;;;;;-1.36;60.04;101416.72;5096805;28;20024;-70
2021/12/23 05:49:22;;;;;;;29.73;13.18;;;;;;;-1.41;60.01;101411.56;5096866;28;20443;-70
2021/12/23 05:51:48;;;;;;;29.85;13.93;;;;;;;-1.42;60.21;101409.78;5099520;28;20131;-70
2021/12/23 05:54:14;;;;;;;29.13;14.85;;;;;;;-1.42;60.41;101411.59;5092819;28;20429;-69
2021/12/23 05:56:40;;;;;;;28.75;14.40;;;;;;;-1.44;60.29;101402.84;5101996;28;20039;-70
2021/12/23 05:59:05;;;;;;;27.75;13.88;;;;;;;-1.46;60.37;101392.34;5098409;28;20570;-69
2021/12/23 06:01:31;;;;;;;30.77;15.18;;;;;;;-1.48;60.29;101395.94;5094830;28;20031;-70
2021/12/23 06:03:57;;;;;;;26.60;14.00;;;;;;;-1.62;61.03;101387.47;5104786;28;20027;-70
2021/12/23 06:06:23;;;;;;;28.13;14.07;;;;;;;-1.50;61.04;101393.31;5098474;28;20065;-69
2021/12/23 06:08:49;;;;;;;28.65;14.30;;;;;;;-1.49;60.57;101407.34;5106459;28;20066;-69
2021/12/23 06:11:14;;;;;;;29.02;13.32;;;;;;;-1.48;60.75;101409.91;5101671;28;20024;-70
2021/12/23 06:13:40;;;;;;;26.60;13.13;;;;;;;-1.52;60.45;101397.75;5101250;28;20035;-69
2021/12/23 06:16:05;;;;;;;26.45;13.68;;;;;;;-1.44;60.39;101402.84;5091742;28;20479;-70
2021/12/23 06:18:31;;;;;;;29.10;13.20;;;;;;;-1.45;59.54;101411.66;5101197;28;20048;-70
2021/12/23 06:20:56;;;;;;;26.92;13.20;;;;;;;-1.55;59.99;101405.69;5101102;28;20111;-70
2021/12/23 06:23:22;;;;;;;26.73;13.15;;;;;;;-1.41;59.55;101423.81;5096613;28;20512;-69
2021/12/23 06:25:47;;;;;;;26.30;13.15;;;;;;;-1.48;59.73;101414.34;5096937;28;20398;-70
2021/12/23 06:28:13;;;;;;;28.92;14.18;;;;;;;-1.45;59.71;101419.53;5100974;28;20020;-70
2021/12/23 06:30:38;;;;;;;37.28;13.82;;;;;;;-1.47;60.03;101418.69;5098966;28;20104;-70
2021/12/23 06:33:04;;;;;;;33.67;15.10;;;;;;;-1.51;59.89;101412.66;5101291;28;20045;-69
2021/12/23 06:35:31;;;;;;;30.50;13.80;;;;;;;-1.51;60.10;101430.19;5102192;28;20040;-69
2021/12/23 06:38:02;;;;;;;30.30;13.77;;;;;;;-1.49;59.85;101431.88;5108106;28;20024;-70
2021/12/23 06:40:28;;;;;;;32.40;14.18;;;;;;;-1.47;60.03;101431.84;5103381;28;20551;-69
2021/12/23 06:42:54;;;;;;;28.30;14.18;;;;;;;-1.49;59.99;101420.50;5105180;28;20028;-69
2021/12/23 06:45:19;;;;;;;26.48;14.32;;;;;;;-1.48;59.89;101423.06;5104854;28;20043;-70
2021/12/23 06:47:45;;;;;;;30.73;13.70;;;;;;;-1.49;59.99;101412.63;5099395;28;20045;-70
2021/12/23 06:50:11;;;;;;;26.70;14.23;;;;;;;-1.48;59.39;101406.44;5099115;28;20052;-70
2021/12/23 06:52:38;;;;;;;30.70;14.65;;;;;;;-1.46;59.11;101405.50;5096822;28;20051;-69
2021/12/23 06:55:10;;;;;;;30.55;16.00;;;;;;;-1.43;58.94;101410.69;5103130;28;20102;-69
2021/12/23 06:57:36;;;;;;;34.10;16.10;;;;;;;-1.41;58.83;101413.31;5100305;28;20035;-69
2021/12/23 07:00:04;;;;;;;37.92;18.20;;;;;;;-1.51;58.78;101382.84;5105575;28;20463;-69
2021/12/23 07:02:29;;;;;;;37.33;18.05;;;;;;;-1.45;58.62;101394.06;5109169;28;20039;-70
2021/12/23 07:04:55;;;;;;;38.28;18.65;;;;;;;-1.41;58.92;101392.25;5102939;28;20023;-69
2021/12/23 07:07:29;;;;;;;36.88;18.50;;;;;;;-1.36;59.17;101388.63;5102895;28;20379;-69
2021/12/23 07:09:55;;;;;;;29.27;14.82;;;;;;;-1.31;58.96;101401.66;5100395;28;20071;-69
2021/12/23 07:12:22;;;;;;;28.85;15.27;;;;;;;-1.30;58.58;101400.75;5107352;28;20383;-68
2021/12/23 07:14:49;;;;;;;29.25;15.27;;;;;;;-1.26;58.60;101397.19;5111586;28;20038;-68
2021/12/23 07:17:14;;;;;;;27.80;15.40;;;;;;;-1.28;58.35;101386.69;5095943;28;20062;-67
2021/12/23 07:19:40;;;;;;;25.00;13.88;;;;;;;-1.20;58.52;101394.38;5098766;28;20064;-67
2021/12/23 07:22:05;;;;;;;31.35;14.77;;;;;;;-1.19;58.32;101394.34;5105888;28;20024;-68
2021/12/23 07:24:31;;;;;;;29.52;14.88;;;;;;;-1.11;57.93;101400.31;5100561;27;20031;-68
2021/12/23 07:26:57;;;;;;;27.23;14.27;;;;;;;-1.13;57.88;101396.00;5108853;28;20471;-66
2021/12/23 07:29:22;;;;;;;30.65;15.45;;;;;;;-1.06;57.70;101397.59;5098800;28;20034;-67
2021/12/23 07:31:48;;;;;;;29.23;15.27;;;;;;;-1.07;57.88;101390.56;5095776;28;20028;-68
2021/12/23 07:34:14;;;;;;;25.35;14.07;;;;;;;-1.04;57.64;101390.50;5094031;28;20027;-67
2021/12/23 07:36:39;;;;;;;26.05;14.48;;;;;;;-1.03;57.68;101395.72;5109416;28;20027;-68
2021/12/23 07:39:07;;;;;;;31.63;15.60;;;;;;;-1.05;57.30;101391.41;5111139;27;20035;-68
2021/12/23 07:41:33;;;;;;;31.00;14.07;;;;;;;-1.08;57.28;101389.72;5105505;28;20387;-67
2021/12/23 07:44:02;;;;;;;30.75;16.13;;;;;;;-0.97;56.99;101395.59;5101482;28;20015;-69
2021/12/23 07:46:30;;;;;;;31.25;14.73;;;;;;;-0.94;56.60;101394.66;5098350;28;20038;-68
2021/12/23 07:48:57;;;;;;;31.83;15.85;;;;;;;-0.93;56.48;101385.88;5102506;27;20399;-68
2021/12/23 07:51:23;;;;;;;29.08;14.65;;;;;;;-0.97;56.62;101378.94;5099554;28;20063;-67
2021/12/23 07:53:49;;;;;;;29.30;14.00;;;;;;;-0.96;56.63;101381.56;5098525;28;20111;-68
2021/12/23 07:56:15;;;;;;;26.90;14.05;;;;;;;-1.01;56.47;101372.88;5095442;28;20463;-67
2021/12/23 07:58:40;;;;;;;26.92;15.07;;;;;;;-0.95;56.52;101391.16;5100355;28;20039;-69
2021/12/23 08:01:06;;;;;;;30.73;15.38;;;;;;;-1.00;56.49;101373.75;5101432;28;20031;-68
2021/12/23 08:03:31;;;;;;;28.13;14.50;;;;;;;-1.04;56.42;101372.94;5095022;28;20039;-68
2021/12/23 08:05:57;;;;;;;33.15;15.50;;;;;;;-0.95;56.51;101377.13;5091531;28;20161;-68
2021/12/23 08:08:22;;;;;;;31.20;14.68;;;;;;;-1.06;57.23;101361.59;5092930;28;20463;-67
2021/12/23 08:10:50;;;;;;;28.73;14.65;;;;;;;-1.05;57.03;101355.44;5099014;28;20027;-68
2021/12/23 08:13:16;;;;;;;30.02;14.40;;;;;;;-1.00;57.19;101371.13;5091689;28;20028;-69
2021/12/23 08:15:41;;;;;;;29.52;15.25;;;;;;;-1.01;57.21;101358.84;5105575;28;20050;-67
2021/12/23 08:18:07;;;;;;;29.17;14.18;;;;;;;-0.99;56.85;101351.78;5099328;28;20024;-68
2021/12/23 08:20:32;;;;;;;31.85;14.15;;;;;;;-0.95;56.84;101366.59;5104617;28;20492;-68
2021/12/23 08:22:58;;;;;;;26.92;13.98;;;;;;;-0.94;56.31;101349.88;5110526;28;20059;-70
2021/12/23 08:25:24;;;;;;;28.45;14.60;;;;;;;-0.90;56.26;101343.66;5101292;28;20023;-70
2021/12/23 08:27:50;;;;;;;31.20;14.82;;;;;;;-0.90;56.56;101343.66;5101680;28;20027;-71
2021/12/23 08:30:18;;;;;;;30.48;14.15;;;;;;;-0.84;56.88;101351.41;5100993;28;20020;-68
2021/12/23 08:32:45;;;;;;;26.85;14.35;;;;;;;-0.80;56.47;101350.44;5101747;28;20709;-68
2021/12/23 08:35:11;;;;;;;27.73;14.30;;;;;;;-0.78;56.55;101346.84;5104422;28;20028;-69
2021/12/23 08:37:45;;;;;;;30.50;14.48;;;;;;;-0.71;56.12;101337.88;5101451;28;20375;-69
2021/12/23 08:40:12;;;;;;;29.60;14.20;;;;;;;-0.69;56.27;101332.56;5093334;28;20023;-68
2021/12/23 08:42:38;;;;;;;26.70;13.75;;;;;;;-0.62;55.86;101326.25;5103792;28;20517;-67
2021/12/23 08:45:05;;;;;;;27.13;13.85;;;;;;;-0.48;55.46;101332.88;5106451;28;20059;-68
2021/12/23 08:47:31;;;;;;;29.80;14.68;;;;;;;-0.45;55.55;101316.13;5107236;28;20028;-68
2021/12/23 08:49:57;;;;;;;28.67;14.10;;;;;;;-0.34;55.67;101321.97;5091861;28;20124;-68
2021/12/23 08:52:22;;;;;;;27.98;14.00;;;;;;;-0.26;55.72;101326.13;5104866;28;20045;-67
2021/12/23 08:54:48;;;;;;;29.83;14.50;;;;;;;-0.25;54.92;101314.66;5099861;28;20066;-68
2021/12/23 08:57:14;;;;;;;26.08;13.15;;;;;;;-0.10;54.68;101326.53;5098232;28;20038;-67
2021/12/23 08:59:40;;;;;;;25.30;13.20;;;;;;;-0.08;54.57;101315.06;5095731;28;20036;-67
2021/12/23 09:02:06;;;;;;;29.27;14.25;;;;;;;0.03;54.19;101317.38;5100743;28;20279;-67
2021/12/23 09:04:31;;;;;;;26.92;13.40;;;;;;;0.10;53.78;101323.34;5100886;28;20694;-66
2021/12/23 09:06:57;;;;;;;27.75;13.38;;;;;;;0.17;53.92;101332.81;5101234;28;20028;-66
2021/12/23 09:09:24;;;;;;;32.28;13.93;;;;;;;0.15;53.10;101308.22;5093085;28;20024;-67
2021/12/23 09:11:50;;;;;;;25.05;12.95;;;;;;;0.30;52.99;101320.97;5098866;28;20165;-67
2021/12/23 09:14:16;;;;;;;24.33;13.05;;;;;;;0.27;52.39;101300.84;5095603;28;20052;-67
2021/12/23 09:16:41;;;;;;;25.77;12.25;;;;;;;0.39;52.37;101308.38;5102739;28;20082;-66
2021/12/23 09:19:09;;;;;;;24.60;11.73;;;;;;;0.38;51.97;101292.59;5086939;28;20028;-68
2021/12/23 09:21:35;;;;;;;25.88;12.65;;;;;;;0.38;52.04;101282.88;5092793;28;20024;-66
2021/12/23 09:24:03;;;;;;;25.83;11.57;;;;;;;0.54;51.20;101286.78;5101095;27;20039;-67
2021/12/23 09:26:31;;;;;;;21.88;11.15;;;;;;;0.57;50.70;101286.69;5096243;28;20055;-66
2021/12/23 09:29:13;;;;;;;19.38;11.15;;;;;;;0.53;50.59;101268.34;5092265;28;20123;-66
2021/12/23 09:34:23;;;;;;;19.35;10.60;;;;;;;0.74;50.77;101287.00;5091207;28;20042;-67
2021/12/23 09:36:48;;;;;;;24.35;11.93;;;;;;;0.80;49.15;101273.59;5101204;28;20401;-67
2021/12/23 09:39:14;;;;;;;20.33;9.30;;;;;;;0.88;49.41;101278.63;5090808;28;20061;-67
2021/12/23 09:41:42;;;;;;;17.65;10.07;;;;;;;0.95;49.49;101282.78;5090653;28;20571;-67
2021/12/23 09:44:08;;;;;;;20.65;10.98;;;;;;;1.02;49.49;101276.38;5085555;28;20113;-66
2021/12/23 09:46:35;;;;;;;21.05;11.48;;;;;;;1.03;49.37;101260.50;5087472;28;20024;-66
2021/12/23 09:49:03;;;;;;;19.73;11.10;;;;;;;0.98;49.31;101241.31;5101468;27;20035;-67
2021/12/23 09:51:32;;;;;;;17.98;10.30;;;;;;;1.14;49.25;101258.38;5099944;28;20441;-66
2021/12/23 09:54:00;;;;;;;16.88;8.98;;;;;;;1.22;48.47;101235.16;5102922;28;22860;-66
2021/12/23 09:56:27;;;;;;;18.42;10.55;;;;;;;1.25;48.53;101228.91;5095699;28;20479;-67
2021/12/23 09:58:57;;;;;;;21.88;11.25;;;;;;;1.27;49.17;101216.53;5099383;28;20054;-66
2021/12/23 10:01:23;;;;;;;20.15;11.05;;;;;;;1.27;48.46;101224.44;5094205;28;20057;-69
2021/12/23 10:03:48;;;;;;;23.15;10.77;;;;;;;1.27;48.24;101201.53;5097680;28;20093;-68
2021/12/23 10:06:15;;;;;;;22.38;10.18;;;;;;;1.40;47.66;101205.47;5101632;28;20031;-69
2021/12/23 10:08:41;;;;;;;18.92;10.57;;;;;;;1.49;47.63;101207.75;5099962;28;20076;-69
2021/12/23 10:30:39;;;;;;;17.23;9.80;;;;;;;1.95;47.03;101191.91;5092861;28;20462;-69
2021/12/23 10:38:51;;;;;;;17.23;9.75;;;;;;;2.07;47.03;101175.53;5105399;28;20096;-69
2021/12/23 10:41:28;;;;;;;18.05;9.80;;;;;;;2.09;46.40;101159.59;5096798;28;20080;-68
2021/12/23 10:43:53;;;;;;;16.15;9.20;;;;;;;2.19;46.18;101169.75;5101602;28;20368;-68
2021/12/23 10:46:25;;;;;;;16.10;9.40;;;;;;;2.20;46.48;101163.53;5094228;28;20036;-69
2021/12/23 10:49:14;;;;;;;14.32;8.07;;;;;;;2.24;45.89;101167.78;5095275;28;20102;-69
2021/12/23 10:51:58;;;;;;;17.50;9.45;;;;;;;2.28;46.00;101169.38;5093604;28;20571;-69
2021/12/23 11:00:30;;;;;;;19.13;9.75;;;;;;;2.29;46.21;101143.78;5095924;28;20039;-69
2021/12/23 11:03:17;;;;;;;15.45;8.70;;;;;;;2.27;46.31;101141.22;5091333;28;20028;-68
2021/12/23 11:05:54;;;;;;;15.63;8.88;;;;;;;2.25;45.66;101132.47;5096220;28;20065;-69
2021/12/23 11:38:11;;;;;;;16.45;8.45;;;;;;;2.42;44.78;101069.09;5095626;28;20483;-68
2021/12/23 11:43:28;;;;;;;16.95;8.52;;;;;;;2.45;45.21;101065.44;5099862;28;20535;-68
2021/12/23 11:45:54;;;;;;;17.42;8.70;;;;;;;2.47;45.00;101063.59;5103458;28;20383;-67
2021/12/23 11:48:19;;;;;;;17.90;8.75;;;;;;;2.41;45.07;101047.97;5098881;28;20368;-67
2021/12/23 11:51:05;;;;;;;13.80;8.85;;;;;;;2.36;45.40;101040.22;5092366;28;20039;-67
2021/12/23 11:53:31;;;;;;;17.40;8.40;;;;;;;2.49;45.12;101034.41;5094326;28;20087;-67
2021/12/23 11:55:57;;;;;;;15.80;8.27;;;;;;;2.50;44.88;101039.66;5108162;28;20058;-67
2021/12/23 11:58:25;;;;;;;14.82;8.32;;;;;;;2.34;45.03;101002.41;5110250;28;20028;-66
2021/12/23 12:01:08;;;;;;;14.85;8.10;;;;;;;2.38;45.14;101015.50;5107349;28;20125;-67
2021/12/23 12:03:57;;;;;;;16.08;8.23;;;;;;;2.37;45.98;100998.75;5097574;28;20120;-67
2021/12/23 12:06:38;;;;;;;16.05;8.32;;;;;;;2.35;45.48;100982.94;5097622;28;20506;-67
2021/12/23 12:09:16;;;;;;;14.10;8.30;;;;;;;2.41;44.95;100975.66;5097683;28;20043;-67
2021/12/23 12:11:49;;;;;;;17.88;8.35;;;;;;;2.36;45.82;100979.34;5095688;28;20040;-67
2021/12/23 12:14:34;;;;;;;15.15;8.48;;;;;;;2.38;46.07;100977.50;5093331;28;20034;-66
2021/12/23 12:17:18;;;;;;;;;;;;;;;2.37;45.64;100972.28;5098374;28;20026;-67
2021/12/23 12:19:59;;;;;;;17.55;9.60;;;;;;;2.36;46.64;100962.63;5099059;28;19912;-67
2021/12/23 12:23:00;;;;;;;21.45;10.57;;;;;;;2.39;47.02;100966.00;5092560;28;20020;-67
2021/12/23 12:25:25;;;;;;;15.68;9.10;;;;;;;2.38;47.07;100952.81;5098953;28;20047;-66
2021/12/23 12:27:57;;;;;;;17.38;9.85;;;;;;;2.39;47.26;100958.03;5096903;27;20063;-65
2021/12/23 12:30:43;;;;;;;19.23;10.38;;;;;;;2.39;47.58;100950.09;5104440;28;20523;-67
2021/12/23 12:33:35;;;;;;;21.40;11.13;;;;;;;2.40;47.60;100953.63;5108235;28;20118;-67